首页
METAR-TAF:

METAR-TAF

机场 :

Decorah Municipal Airport

Decorah, 艾奥瓦州, 美国

纬度: 43-17N, 经度: 091-44W, 海拔: 353米

当前天气观测

该预报发布于28分钟前的18:35 UTC
风速8节,风向,有时为16节阵风,在西南之间变化
温度 23°C
湿度 61%
气压 1023 hPa
能見度: 14.5公里
天空无云

METAR: KDEH 211835Z AUTO 19008G16KT 170V230 9SM CLR 23/15 A3020 RMK AO2

时间: 14:03 (19:03 UTC)


TAF: 丢失

超过4000个机场的气象观测和天气预报(METAR&TAF报告)。

可查询的气象台以黄色和红色小点在地图上表示。

将鼠标移到小点上方,可查看气象台名称。

然后点击查看天气观测和预报。

如需切换地图:点击带黑十字的绿色按钮放大地图;点击带横线的绿色按钮缩小地图;或者点击绿色箭头查看邻近地区的地图。


METAR-TAF: